sensor_id;sensor_type;location;lat;lon;timestamp;P1;durP1;ratioP1;P2;durP2;ratioP2
31206;SDS011;17834;52.992;8.856;2024-03-08T00:02:02;31.02;;;12.68;;
31206;SDS011;17834;52.992;8.856;2024-03-08T00:04:29;30.35;;;13.25;;
31206;SDS011;17834;52.992;8.856;2024-03-08T00:06:54;31.42;;;13.30;;
31206;SDS011;17834;52.992;8.856;2024-03-08T00:09:20;33.58;;;13.07;;
31206;SDS011;17834;52.992;8.856;2024-03-08T00:11:46;33.30;;;12.98;;
31206;SDS011;17834;52.992;8.856;2024-03-08T00:14:15;30.50;;;12.73;;
31206;SDS011;17834;52.992;8.856;2024-03-08T00:16:41;35.33;;;13.82;;
31206;SDS011;17834;52.992;8.856;2024-03-08T00:19:08;31.70;;;12.80;;
31206;SDS011;17834;52.992;8.856;2024-03-08T00:21:34;32.08;;;13.25;;
31206;SDS011;17834;52.992;8.856;2024-03-08T00:24:00;29.77;;;14.25;;
31206;SDS011;17834;52.992;8.856;2024-03-08T00:26:26;28.27;;;12.10;;
31206;SDS011;17834;52.992;8.856;2024-03-08T00:28:55;25.13;;;12.13;;
31206;SDS011;17834;52.992;8.856;2024-03-08T00:31:20;28.30;;;11.88;;
31206;SDS011;17834;52.992;8.856;2024-03-08T00:33:46;27.92;;;11.93;;
31206;SDS011;17834;52.992;8.856;2024-03-08T00:36:12;40.80;;;13.48;;
31206;SDS011;17834;52.992;8.856;2024-03-08T00:38:38;28.10;;;11.20;;
31206;SDS011;17834;52.992;8.856;2024-03-08T00:41:04;29.17;;;11.75;;
31206;SDS011;17834;52.992;8.856;2024-03-08T00:43:30;28.27;;;12.32;;
31206;SDS011;17834;52.992;8.856;2024-03-08T00:45:56;28.30;;;12.10;;
31206;SDS011;17834;52.992;8.856;2024-03-08T00:48:23;27.08;;;12.55;;
31206;SDS011;17834;52.992;8.856;2024-03-08T00:50:49;37.75;;;13.07;;
31206;SDS011;17834;52.992;8.856;2024-03-08T00:53:15;28.05;;;13.18;;
31206;SDS011;17834;52.992;8.856;2024-03-08T00:55:41;31.30;;;13.18;;
31206;SDS011;17834;52.992;8.856;2024-03-08T00:58:07;24.33;;;11.35;;
31206;SDS011;17834;52.992;8.856;2024-03-08T01:00:34;28.38;;;11.85;;
31206;SDS011;17834;52.992;8.856;2024-03-08T01:03:00;36.97;;;12.50;;
31206;SDS011;17834;52.992;8.856;2024-03-08T01:05:28;26.15;;;11.38;;
31206;SDS011;17834;52.992;8.856;2024-03-08T01:07:54;27.30;;;11.40;;
31206;SDS011;17834;52.992;8.856;2024-03-08T01:10:20;27.33;;;12.02;;
31206;SDS011;17834;52.992;8.856;2024-03-08T01:12:46;27.95;;;11.55;;
31206;SDS011;17834;52.992;8.856;2024-03-08T01:15:12;27.08;;;11.85;;
31206;SDS011;17834;52.992;8.856;2024-03-08T01:17:37;24.38;;;11.55;;
31206;SDS011;17834;52.992;8.856;2024-03-08T01:20:04;26.27;;;11.15;;
31206;SDS011;17834;52.992;8.856;2024-03-08T01:22:30;30.45;;;12.32;;
31206;SDS011;17834;52.992;8.856;2024-03-08T01:24:56;33.85;;;12.73;;
31206;SDS011;17834;52.992;8.856;2024-03-08T01:27:22;30.92;;;12.23;;
31206;SDS011;17834;52.992;8.856;2024-03-08T01:29:49;26.77;;;11.18;;
31206;SDS011;17834;52.992;8.856;2024-03-08T01:32:15;30.50;;;12.05;;
31206;SDS011;17834;52.992;8.856;2024-03-08T01:34:42;26.67;;;11.90;;
31206;SDS011;17834;52.992;8.856;2024-03-08T01:37:10;29.13;;;11.32;;
31206;SDS011;17834;52.992;8.856;2024-03-08T01:39:35;29.23;;;11.65;;
31206;SDS011;17834;52.992;8.856;2024-03-08T01:42:01;31.70;;;12.15;;
31206;SDS011;17834;52.992;8.856;2024-03-08T01:44:27;29.50;;;12.52;;
31206;SDS011;17834;52.992;8.856;2024-03-08T01:46:53;30.60;;;11.43;;
31206;SDS011;17834;52.992;8.856;2024-03-08T01:49:20;33.47;;;12.18;;
31206;SDS011;17834;52.992;8.856;2024-03-08T01:51:48;26.25;;;10.77;;
31206;SDS011;17834;52.992;8.856;2024-03-08T01:54:14;25.70;;;11.45;;
31206;SDS011;17834;52.992;8.856;2024-03-08T01:56:40;25.02;;;11.30;;
31206;SDS011;17834;52.992;8.856;2024-03-08T01:59:06;27.50;;;10.82;;
31206;SDS011;17834;52.992;8.856;2024-03-08T02:01:33;27.38;;;11.88;;
31206;SDS011;17834;52.992;8.856;2024-03-08T02:03:59;27.92;;;12.48;;
31206;SDS011;17834;52.992;8.856;2024-03-08T02:06:25;28.38;;;10.73;;
31206;SDS011;17834;52.992;8.856;2024-03-08T02:08:51;28.52;;;12.15;;
31206;SDS011;17834;52.992;8.856;2024-03-08T02:11:18;26.67;;;11.02;;
31206;SDS011;17834;52.992;8.856;2024-03-08T02:13:45;29.20;;;10.82;;
31206;SDS011;17834;52.992;8.856;2024-03-08T02:16:11;30.65;;;11.88;;
31206;SDS011;17834;52.992;8.856;2024-03-08T02:18:37;36.90;;;12.38;;
31206;SDS011;17834;52.992;8.856;2024-03-08T02:21:04;27.90;;;11.95;;
31206;SDS011;17834;52.992;8.856;2024-03-08T02:23:30;27.33;;;11.30;;
31206;SDS011;17834;52.992;8.856;2024-03-08T02:25:57;27.85;;;10.98;;
31206;SDS011;17834;52.992;8.856;2024-03-08T02:28:23;31.05;;;11.98;;
31206;SDS011;17834;52.992;8.856;2024-03-08T02:30:54;25.38;;;11.93;;
31206;SDS011;17834;52.992;8.856;2024-03-08T02:33:22;29.65;;;11.70;;
31206;SDS011;17834;52.992;8.856;2024-03-08T02:35:48;21.10;;;10.75;;
31206;SDS011;17834;52.992;8.856;2024-03-08T02:38:16;28.85;;;12.35;;
31206;SDS011;17834;52.992;8.856;2024-03-08T02:40:43;26.98;;;10.90;;
31206;SDS011;17834;52.992;8.856;2024-03-08T02:43:10;29.27;;;12.43;;
31206;SDS011;17834;52.992;8.856;2024-03-08T02:45:36;26.92;;;10.82;;
31206;SDS011;17834;52.992;8.856;2024-03-08T02:48:02;25.58;;;11.60;;
31206;SDS011;17834;52.992;8.856;2024-03-08T02:50:28;27.95;;;11.90;;
31206;SDS011;17834;52.992;8.856;2024-03-08T02:52:54;32.28;;;12.82;;
31206;SDS011;17834;52.992;8.856;2024-03-08T02:55:20;30.52;;;12.38;;
31206;SDS011;17834;52.992;8.856;2024-03-08T02:57:46;29.05;;;12.27;;
31206;SDS011;17834;52.992;8.856;2024-03-08T03:00:12;33.30;;;12.80;;
31206;SDS011;17834;52.992;8.856;2024-03-08T03:02:38;25.33;;;12.20;;
31206;SDS011;17834;52.992;8.856;2024-03-08T03:05:05;26.30;;;12.50;;
31206;SDS011;17834;52.992;8.856;2024-03-08T03:07:32;31.10;;;12.30;;
31206;SDS011;17834;52.992;8.856;2024-03-08T03:10:01;26.00;;;11.95;;
31206;SDS011;17834;52.992;8.856;2024-03-08T03:12:27;25.85;;;11.90;;
31206;SDS011;17834;52.992;8.856;2024-03-08T03:14:53;30.90;;;13.20;;
31206;SDS011;17834;52.992;8.856;2024-03-08T03:17:21;31.73;;;11.73;;
31206;SDS011;17834;52.992;8.856;2024-03-08T03:19:47;30.15;;;13.98;;
31206;SDS011;17834;52.992;8.856;2024-03-08T03:22:13;33.40;;;12.80;;
31206;SDS011;17834;52.992;8.856;2024-03-08T03:24:40;28.85;;;11.85;;
31206;SDS011;17834;52.992;8.856;2024-03-08T03:27:07;25.65;;;11.20;;
31206;SDS011;17834;52.992;8.856;2024-03-08T03:29:38;33.03;;;12.13;;
31206;SDS011;17834;52.992;8.856;2024-03-08T03:32:07;28.98;;;12.95;;
31206;SDS011;17834;52.992;8.856;2024-03-08T03:34:33;29.92;;;11.80;;
31206;SDS011;17834;52.992;8.856;2024-03-08T03:37:01;28.80;;;12.70;;
31206;SDS011;17834;52.992;8.856;2024-03-08T03:39:27;27.73;;;11.25;;
31206;SDS011;17834;52.992;8.856;2024-03-08T03:41:56;30.25;;;13.43;;
31206;SDS011;17834;52.992;8.856;2024-03-08T03:44:22;33.50;;;13.50;;
31206;SDS011;17834;52.992;8.856;2024-03-08T03:46:48;33.30;;;12.20;;
31206;SDS011;17834;52.992;8.856;2024-03-08T03:49:15;29.10;;;13.35;;
31206;SDS011;17834;52.992;8.856;2024-03-08T03:51:42;32.30;;;12.30;;
31206;SDS011;17834;52.992;8.856;2024-03-08T03:54:09;28.10;;;11.95;;
31206;SDS011;17834;52.992;8.856;2024-03-08T03:56:35;31.38;;;14.02;;
31206;SDS011;17834;52.992;8.856;2024-03-08T03:59:01;28.48;;;11.43;;
31206;SDS011;17834;52.992;8.856;2024-03-08T04:01:27;28.83;;;13.25;;
31206;SDS011;17834;52.992;8.856;2024-03-08T04:03:54;30.17;;;12.13;;
31206;SDS011;17834;52.992;8.856;2024-03-08T04:06:20;31.92;;;12.35;;
31206;SDS011;17834;52.992;8.856;2024-03-08T04:08:47;29.75;;;12.25;;
31206;SDS011;17834;52.992;8.856;2024-03-08T04:11:13;32.00;;;11.52;;
31206;SDS011;17834;52.992;8.856;2024-03-08T04:13:42;28.60;;;12.38;;
31206;SDS011;17834;52.992;8.856;2024-03-08T04:16:08;26.13;;;11.70;;
31206;SDS011;17834;52.992;8.856;2024-03-08T04:18:36;37.10;;;13.00;;
31206;SDS011;17834;52.992;8.856;2024-03-08T04:21:02;27.42;;;11.30;;
31206;SDS011;17834;52.992;8.856;2024-03-08T04:23:31;30.45;;;12.40;;
31206;SDS011;17834;52.992;8.856;2024-03-08T04:25:57;27.33;;;11.82;;
31206;SDS011;17834;52.992;8.856;2024-03-08T04:28:23;31.15;;;12.40;;
31206;SDS011;17834;52.992;8.856;2024-03-08T04:30:50;32.70;;;14.15;;
31206;SDS011;17834;52.992;8.856;2024-03-08T04:33:16;28.05;;;12.55;;
31206;SDS011;17834;52.992;8.856;2024-03-08T04:35:43;32.45;;;13.35;;
31206;SDS011;17834;52.992;8.856;2024-03-08T04:38:10;30.65;;;13.10;;
31206;SDS011;17834;52.992;8.856;2024-03-08T04:40:36;27.25;;;13.13;;
31206;SDS011;17834;52.992;8.856;2024-03-08T04:43:02;29.77;;;12.75;;
31206;SDS011;17834;52.992;8.856;2024-03-08T04:45:28;35.38;;;15.15;;
31206;SDS011;17834;52.992;8.856;2024-03-08T04:47:54;34.13;;;13.90;;
31206;SDS011;17834;52.992;8.856;2024-03-08T04:50:20;27.50;;;12.52;;
31206;SDS011;17834;52.992;8.856;2024-03-08T04:52:46;33.55;;;14.15;;
31206;SDS011;17834;52.992;8.856;2024-03-08T04:55:12;33.33;;;13.32;;
31206;SDS011;17834;52.992;8.856;2024-03-08T04:57:38;31.08;;;13.48;;
31206;SDS011;17834;52.992;8.856;2024-03-08T05:00:04;27.80;;;12.50;;
31206;SDS011;17834;52.992;8.856;2024-03-08T05:02:35;36.50;;;13.95;;
31206;SDS011;17834;52.992;8.856;2024-03-08T05:05:02;35.30;;;13.63;;
31206;SDS011;17834;52.992;8.856;2024-03-08T05:07:31;33.80;;;12.98;;
31206;SDS011;17834;52.992;8.856;2024-03-08T05:09:58;32.08;;;13.63;;
31206;SDS011;17834;52.992;8.856;2024-03-08T05:12:24;39.95;;;14.18;;
31206;SDS011;17834;52.992;8.856;2024-03-08T05:14:50;35.70;;;14.93;;
31206;SDS011;17834;52.992;8.856;2024-03-08T05:17:16;29.83;;;12.40;;
31206;SDS011;17834;52.992;8.856;2024-03-08T05:19:42;34.30;;;13.13;;
31206;SDS011;17834;52.992;8.856;2024-03-08T05:22:08;36.75;;;13.77;;
31206;SDS011;17834;52.992;8.856;2024-03-08T05:24:34;28.63;;;13.65;;
31206;SDS011;17834;52.992;8.856;2024-03-08T05:27:00;32.10;;;13.40;;
31206;SDS011;17834;52.992;8.856;2024-03-08T05:29:27;35.90;;;14.48;;
31206;SDS011;17834;52.992;8.856;2024-03-08T05:31:54;31.73;;;12.95;;
31206;SDS011;17834;52.992;8.856;2024-03-08T05:34:20;34.67;;;15.07;;
31206;SDS011;17834;52.992;8.856;2024-03-08T05:36:47;33.92;;;13.65;;
31206;SDS011;17834;52.992;8.856;2024-03-08T05:39:14;41.80;;;16.38;;
31206;SDS011;17834;52.992;8.856;2024-03-08T05:41:41;35.08;;;15.13;;
31206;SDS011;17834;52.992;8.856;2024-03-08T05:44:07;36.17;;;16.10;;
31206;SDS011;17834;52.992;8.856;2024-03-08T05:46:33;40.55;;;14.82;;
31206;SDS011;17834;52.992;8.856;2024-03-08T05:49:00;38.97;;;15.35;;
31206;SDS011;17834;52.992;8.856;2024-03-08T05:51:30;33.13;;;14.95;;
31206;SDS011;17834;52.992;8.856;2024-03-08T05:53:56;37.10;;;13.70;;
31206;SDS011;17834;52.992;8.856;2024-03-08T05:56:22;36.70;;;13.10;;
31206;SDS011;17834;52.992;8.856;2024-03-08T05:58:48;40.42;;;16.08;;
31206;SDS011;17834;52.992;8.856;2024-03-08T06:01:15;37.63;;;15.10;;
31206;SDS011;17834;52.992;8.856;2024-03-08T06:03:41;42.53;;;16.17;;
31206;SDS011;17834;52.992;8.856;2024-03-08T06:06:13;40.13;;;14.50;;
31206;SDS011;17834;52.992;8.856;2024-03-08T06:08:39;35.58;;;14.82;;
31206;SDS011;17834;52.992;8.856;2024-03-08T06:11:07;34.50;;;14.70;;
31206;SDS011;17834;52.992;8.856;2024-03-08T06:13:34;43.45;;;14.40;;
31206;SDS011;17834;52.992;8.856;2024-03-08T06:16:00;35.58;;;14.60;;
31206;SDS011;17834;52.992;8.856;2024-03-08T06:18:29;35.00;;;15.30;;
31206;SDS011;17834;52.992;8.856;2024-03-08T06:20:55;43.08;;;15.90;;
31206;SDS011;17834;52.992;8.856;2024-03-08T06:23:21;36.30;;;13.95;;
31206;SDS011;17834;52.992;8.856;2024-03-08T06:25:47;42.28;;;15.02;;
31206;SDS011;17834;52.992;8.856;2024-03-08T06:28:13;38.08;;;14.35;;
31206;SDS011;17834;52.992;8.856;2024-03-08T06:30:39;40.78;;;17.08;;
31206;SDS011;17834;52.992;8.856;2024-03-08T06:33:05;48.63;;;17.65;;
31206;SDS011;17834;52.992;8.856;2024-03-08T06:35:32;34.25;;;14.32;;
31206;SDS011;17834;52.992;8.856;2024-03-08T06:37:58;40.45;;;16.45;;
31206;SDS011;17834;52.992;8.856;2024-03-08T06:40:24;45.17;;;17.73;;
31206;SDS011;17834;52.992;8.856;2024-03-08T06:42:50;37.47;;;16.05;;
31206;SDS011;17834;52.992;8.856;2024-03-08T06:45:17;38.88;;;15.38;;
31206;SDS011;17834;52.992;8.856;2024-03-08T06:47:45;39.85;;;16.05;;
31206;SDS011;17834;52.992;8.856;2024-03-08T06:50:11;41.03;;;16.40;;
31206;SDS011;17834;52.992;8.856;2024-03-08T06:52:38;44.70;;;17.27;;
31206;SDS011;17834;52.992;8.856;2024-03-08T06:55:05;39.00;;;16.67;;
31206;SDS011;17834;52.992;8.856;2024-03-08T06:57:31;42.05;;;16.10;;
31206;SDS011;17834;52.992;8.856;2024-03-08T06:59:57;42.35;;;16.98;;
31206;SDS011;17834;52.992;8.856;2024-03-08T07:02:23;44.08;;;17.02;;
31206;SDS011;17834;52.992;8.856;2024-03-08T07:04:49;50.33;;;19.77;;
31206;SDS011;17834;52.992;8.856;2024-03-08T07:07:15;41.53;;;16.67;;
31206;SDS011;17834;52.992;8.856;2024-03-08T07:09:45;42.38;;;16.92;;
31206;SDS011;17834;52.992;8.856;2024-03-08T07:12:11;38.22;;;15.75;;
31206;SDS011;17834;52.992;8.856;2024-03-08T07:14:38;38.72;;;17.25;;
31206;SDS011;17834;52.992;8.856;2024-03-08T07:17:10;44.38;;;17.05;;
31206;SDS011;17834;52.992;8.856;2024-03-08T07:19:36;37.92;;;15.05;;
31206;SDS011;17834;52.992;8.856;2024-03-08T07:22:03;45.00;;;17.48;;
31206;SDS011;17834;52.992;8.856;2024-03-08T07:24:29;34.80;;;15.02;;
31206;SDS011;17834;52.992;8.856;2024-03-08T07:27:20;41.00;;;16.38;;
31206;SDS011;17834;52.992;8.856;2024-03-08T07:29:46;41.95;;;16.70;;
31206;SDS011;17834;52.992;8.856;2024-03-08T07:32:13;40.38;;;16.45;;
31206;SDS011;17834;52.992;8.856;2024-03-08T07:34:50;37.83;;;15.25;;
31206;SDS011;17834;52.992;8.856;2024-03-08T07:37:17;43.35;;;16.95;;
31206;SDS011;17834;52.992;8.856;2024-03-08T07:39:44;38.35;;;15.95;;
31206;SDS011;17834;52.992;8.856;2024-03-08T07:42:10;46.83;;;18.15;;
31206;SDS011;17834;52.992;8.856;2024-03-08T07:44:36;36.83;;;15.60;;
31206;SDS011;17834;52.992;8.856;2024-03-08T07:47:02;37.00;;;15.15;;
31206;SDS011;17834;52.992;8.856;2024-03-08T07:49:29;41.72;;;17.25;;
31206;SDS011;17834;52.992;8.856;2024-03-08T07:51:55;35.83;;;15.70;;
31206;SDS011;17834;52.992;8.856;2024-03-08T07:54:21;44.67;;;16.55;;
31206;SDS011;17834;52.992;8.856;2024-03-08T07:56:47;33.25;;;14.55;;
31206;SDS011;17834;52.992;8.856;2024-03-08T07:59:13;32.65;;;15.20;;
31206;SDS011;17834;52.992;8.856;2024-03-08T08:01:39;37.63;;;15.80;;
31206;SDS011;17834;52.992;8.856;2024-03-08T08:04:05;36.92;;;15.30;;
31206;SDS011;17834;52.992;8.856;2024-03-08T08:06:31;35.88;;;16.27;;
31206;SDS011;17834;52.992;8.856;2024-03-08T08:08:58;37.30;;;15.13;;
31206;SDS011;17834;52.992;8.856;2024-03-08T08:11:26;35.78;;;16.52;;
31206;SDS011;17834;52.992;8.856;2024-03-08T08:13:53;35.60;;;16.17;;
31206;SDS011;17834;52.992;8.856;2024-03-08T08:16:19;34.28;;;15.50;;
31206;SDS011;17834;52.992;8.856;2024-03-08T08:18:45;40.72;;;17.15;;
31206;SDS011;17834;52.992;8.856;2024-03-08T08:21:12;34.60;;;14.50;;
31206;SDS011;17834;52.992;8.856;2024-03-08T08:23:38;37.90;;;15.70;;
31206;SDS011;17834;52.992;8.856;2024-03-08T08:26:05;35.45;;;15.40;;
31206;SDS011;17834;52.992;8.856;2024-03-08T08:28:32;34.85;;;15.60;;
31206;SDS011;17834;52.992;8.856;2024-03-08T08:30:58;30.10;;;13.55;;
31206;SDS011;17834;52.992;8.856;2024-03-08T08:33:24;36.83;;;16.13;;
31206;SDS011;17834;52.992;8.856;2024-03-08T08:35:50;38.97;;;14.77;;
31206;SDS011;17834;52.992;8.856;2024-03-08T08:38:19;31.70;;;14.13;;
31206;SDS011;17834;52.992;8.856;2024-03-08T08:40:45;37.65;;;15.25;;
31206;SDS011;17834;52.992;8.856;2024-03-08T08:43:12;32.33;;;14.65;;
31206;SDS011;17834;52.992;8.856;2024-03-08T08:45:38;31.65;;;14.05;;
31206;SDS011;17834;52.992;8.856;2024-03-08T08:48:04;35.60;;;14.98;;
31206;SDS011;17834;52.992;8.856;2024-03-08T08:50:30;36.38;;;15.50;;
31206;SDS011;17834;52.992;8.856;2024-03-08T08:52:57;38.15;;;16.27;;
31206;SDS011;17834;52.992;8.856;2024-03-08T08:55:23;35.88;;;15.82;;
31206;SDS011;17834;52.992;8.856;2024-03-08T08:57:52;35.25;;;14.57;;
31206;SDS011;17834;52.992;8.856;2024-03-08T09:00:21;34.25;;;15.57;;
31206;SDS011;17834;52.992;8.856;2024-03-08T09:02:51;34.30;;;15.05;;
31206;SDS011;17834;52.992;8.856;2024-03-08T09:05:20;34.00;;;15.07;;
31206;SDS011;17834;52.992;8.856;2024-03-08T09:07:46;38.08;;;15.73;;
31206;SDS011;17834;52.992;8.856;2024-03-08T09:10:12;34.58;;;15.55;;
31206;SDS011;17834;52.992;8.856;2024-03-08T09:12:39;28.95;;;13.57;;
31206;SDS011;17834;52.992;8.856;2024-03-08T09:15:05;38.63;;;16.60;;
31206;SDS011;17834;52.992;8.856;2024-03-08T09:17:36;34.17;;;15.68;;
31206;SDS011;17834;52.992;8.856;2024-03-08T09:20:04;33.90;;;15.35;;
31206;SDS011;17834;52.992;8.856;2024-03-08T09:22:31;35.78;;;15.32;;
31206;SDS011;17834;52.992;8.856;2024-03-08T09:24:57;35.95;;;16.08;;
31206;SDS011;17834;52.992;8.856;2024-03-08T09:27:23;37.33;;;15.63;;
31206;SDS011;17834;52.992;8.856;2024-03-08T09:29:49;40.03;;;16.88;;
31206;SDS011;17834;52.992;8.856;2024-03-08T09:32:15;30.55;;;14.85;;
31206;SDS011;17834;52.992;8.856;2024-03-08T09:34:41;38.97;;;15.13;;
31206;SDS011;17834;52.992;8.856;2024-03-08T09:37:07;34.75;;;15.32;;
31206;SDS011;17834;52.992;8.856;2024-03-08T09:39:33;37.03;;;15.02;;
31206;SDS011;17834;52.992;8.856;2024-03-08T09:42:00;37.88;;;16.20;;
31206;SDS011;17834;52.992;8.856;2024-03-08T09:44:26;35.35;;;15.38;;
31206;SDS011;17834;52.992;8.856;2024-03-08T09:46:54;33.08;;;15.10;;
31206;SDS011;17834;52.992;8.856;2024-03-08T09:49:20;38.85;;;16.00;;
31206;SDS011;17834;52.992;8.856;2024-03-08T09:51:46;38.53;;;15.15;;
31206;SDS011;17834;52.992;8.856;2024-03-08T09:54:12;33.92;;;15.55;;
31206;SDS011;17834;52.992;8.856;2024-03-08T09:56:41;34.88;;;14.63;;
31206;SDS011;17834;52.992;8.856;2024-03-08T09:59:11;30.77;;;15.60;;
31206;SDS011;17834;52.992;8.856;2024-03-08T10:01:52;36.03;;;15.88;;
31206;SDS011;17834;52.992;8.856;2024-03-08T10:04:21;29.80;;;13.77;;
31206;SDS011;17834;52.992;8.856;2024-03-08T10:06:47;31.75;;;14.70;;
31206;SDS011;17834;52.992;8.856;2024-03-08T10:09:13;28.17;;;14.75;;
31206;SDS011;17834;52.992;8.856;2024-03-08T10:11:40;30.23;;;15.05;;
31206;SDS011;17834;52.992;8.856;2024-03-08T10:14:07;32.42;;;14.70;;
31206;SDS011;17834;52.992;8.856;2024-03-08T10:16:34;39.88;;;15.88;;
31206;SDS011;17834;52.992;8.856;2024-03-08T10:19:00;32.30;;;15.52;;
31206;SDS011;17834;52.992;8.856;2024-03-08T10:21:26;35.67;;;15.18;;
31206;SDS011;17834;52.992;8.856;2024-03-08T10:23:53;34.08;;;14.52;;
31206;SDS011;17834;52.992;8.856;2024-03-08T10:26:19;38.45;;;17.05;;
31206;SDS011;17834;52.992;8.856;2024-03-08T10:28:47;32.88;;;15.77;;
31206;SDS011;17834;52.992;8.856;2024-03-08T10:31:13;31.30;;;15.10;;
31206;SDS011;17834;52.992;8.856;2024-03-08T10:33:40;32.13;;;15.02;;
31206;SDS011;17834;52.992;8.856;2024-03-08T10:36:06;32.55;;;15.00;;
31206;SDS011;17834;52.992;8.856;2024-03-08T10:38:34;34.70;;;15.02;;
31206;SDS011;17834;52.992;8.856;2024-03-08T10:41:01;43.38;;;16.65;;
31206;SDS011;17834;52.992;8.856;2024-03-08T10:43:27;32.30;;;14.30;;
31206;SDS011;17834;52.992;8.856;2024-03-08T10:46:02;35.83;;;15.27;;
31206;SDS011;17834;52.992;8.856;2024-03-08T10:48:30;32.43;;;14.67;;
31206;SDS011;17834;52.992;8.856;2024-03-08T10:50:57;29.55;;;14.80;;
31206;SDS011;17834;52.992;8.856;2024-03-08T10:53:23;33.85;;;14.80;;
31206;SDS011;17834;52.992;8.856;2024-03-08T10:55:50;31.98;;;15.10;;
31206;SDS011;17834;52.992;8.856;2024-03-08T10:58:18;34.60;;;14.52;;
31206;SDS011;17834;52.992;8.856;2024-03-08T11:00:45;33.67;;;15.38;;
31206;SDS011;17834;52.992;8.856;2024-03-08T11:03:53;31.58;;;14.93;;
31206;SDS011;17834;52.992;8.856;2024-03-08T11:06:00;30.40;;;15.60;;
31206;SDS011;17834;52.992;8.856;2024-03-08T11:08:26;30.63;;;13.95;;
31206;SDS011;17834;52.992;8.856;2024-03-08T11:10:56;29.88;;;13.95;;
31206;SDS011;17834;52.992;8.856;2024-03-08T11:13:34;30.63;;;15.13;;
31206;SDS011;17834;52.992;8.856;2024-03-08T11:16:01;27.10;;;13.15;;
31206;SDS011;17834;52.992;8.856;2024-03-08T11:18:32;28.02;;;13.65;;
31206;SDS011;17834;52.992;8.856;2024-03-08T11:20:58;31.13;;;14.52;;
31206;SDS011;17834;52.992;8.856;2024-03-08T11:23:24;28.40;;;15.13;;
31206;SDS011;17834;52.992;8.856;2024-03-08T11:25:51;29.90;;;13.93;;
31206;SDS011;17834;52.992;8.856;2024-03-08T11:28:18;30.98;;;15.40;;
31206;SDS011;17834;52.992;8.856;2024-03-08T11:31:30;31.75;;;14.05;;
31206;SDS011;17834;52.992;8.856;2024-03-08T11:33:34;30.48;;;14.25;;
31206;SDS011;17834;52.992;8.856;2024-03-08T11:38:47;27.83;;;12.75;;
31206;SDS011;17834;52.992;8.856;2024-03-08T11:41:13;31.92;;;13.88;;
31206;SDS011;17834;52.992;8.856;2024-03-08T11:43:40;24.05;;;12.45;;
31206;SDS011;17834;52.992;8.856;2024-03-08T11:46:10;28.88;;;12.65;;
31206;SDS011;17834;52.992;8.856;2024-03-08T11:48:40;28.05;;;12.88;;
31206;SDS011;17834;52.992;8.856;2024-03-08T11:51:07;28.75;;;13.63;;
31206;SDS011;17834;52.992;8.856;2024-03-08T11:53:33;27.73;;;13.35;;
31206;SDS011;17834;52.992;8.856;2024-03-08T11:56:10;29.13;;;14.00;;
31206;SDS011;17834;52.992;8.856;2024-03-08T12:01:06;29.25;;;12.77;;
31206;SDS011;17834;52.992;8.856;2024-03-08T12:03:34;28.73;;;13.23;;
31206;SDS011;17834;52.992;8.856;2024-03-08T12:06:00;28.83;;;13.48;;
31206;SDS011;17834;52.992;8.856;2024-03-08T12:08:28;26.98;;;12.48;;
31206;SDS011;17834;52.992;8.856;2024-03-08T12:10:56;33.72;;;14.35;;
31206;SDS011;17834;52.992;8.856;2024-03-08T12:13:25;28.92;;;13.48;;
31206;SDS011;17834;52.992;8.856;2024-03-08T12:15:54;29.08;;;13.45;;
31206;SDS011;17834;52.992;8.856;2024-03-08T12:18:20;28.35;;;13.57;;
31206;SDS011;17834;52.992;8.856;2024-03-08T12:20:46;33.20;;;14.55;;
31206;SDS011;17834;52.992;8.856;2024-03-08T12:23:15;27.70;;;13.65;;
31206;SDS011;17834;52.992;8.856;2024-03-08T12:25:41;27.80;;;14.07;;
31206;SDS011;17834;52.992;8.856;2024-03-08T12:28:11;28.23;;;13.55;;
31206;SDS011;17834;52.992;8.856;2024-03-08T12:30:46;30.77;;;13.07;;
31206;SDS011;17834;52.992;8.856;2024-03-08T12:33:13;27.77;;;13.95;;
31206;SDS011;17834;52.992;8.856;2024-03-08T12:35:39;29.20;;;14.52;;
31206;SDS011;17834;52.992;8.856;2024-03-08T12:38:05;30.98;;;14.60;;
31206;SDS011;17834;52.992;8.856;2024-03-08T12:40:33;28.30;;;13.45;;
31206;SDS011;17834;52.992;8.856;2024-03-08T12:43:01;28.60;;;14.27;;
31206;SDS011;17834;52.992;8.856;2024-03-08T12:45:27;30.88;;;13.73;;
31206;SDS011;17834;52.992;8.856;2024-03-08T12:47:54;29.35;;;12.38;;
31206;SDS011;17834;52.992;8.856;2024-03-08T12:50:23;25.38;;;12.65;;
31206;SDS011;17834;52.992;8.856;2024-03-08T12:52:49;25.73;;;12.75;;
31206;SDS011;17834;52.992;8.856;2024-03-08T12:55:17;24.73;;;13.38;;
31206;SDS011;17834;52.992;8.856;2024-03-08T12:57:43;29.30;;;13.40;;
31206;SDS011;17834;52.992;8.856;2024-03-08T13:00:10;31.00;;;13.98;;
31206;SDS011;17834;52.992;8.856;2024-03-08T13:02:44;24.90;;;12.02;;
31206;SDS011;17834;52.992;8.856;2024-03-08T13:05:10;32.78;;;14.98;;
31206;SDS011;17834;52.992;8.856;2024-03-08T13:07:39;28.38;;;13.25;;
31206;SDS011;17834;52.992;8.856;2024-03-08T13:10:05;32.40;;;14.50;;
31206;SDS011;17834;52.992;8.856;2024-03-08T13:12:32;26.60;;;13.45;;
31206;SDS011;17834;52.992;8.856;2024-03-08T13:15:00;32.88;;;14.18;;
31206;SDS011;17834;52.992;8.856;2024-03-08T13:17:27;31.80;;;15.18;;
31206;SDS011;17834;52.992;8.856;2024-03-08T13:19:54;31.02;;;15.05;;
31206;SDS011;17834;52.992;8.856;2024-03-08T13:22:22;28.15;;;12.90;;
31206;SDS011;17834;52.992;8.856;2024-03-08T13:24:49;29.13;;;14.02;;
31206;SDS011;17834;52.992;8.856;2024-03-08T13:27:17;27.20;;;13.00;;
31206;SDS011;17834;52.992;8.856;2024-03-08T13:29:47;30.90;;;14.70;;
31206;SDS011;17834;52.992;8.856;2024-03-08T13:32:13;31.42;;;13.88;;
31206;SDS011;17834;52.992;8.856;2024-03-08T13:34:43;28.42;;;13.65;;
31206;SDS011;17834;52.992;8.856;2024-03-08T13:37:12;29.08;;;13.20;;
31206;SDS011;17834;52.992;8.856;2024-03-08T13:39:41;37.03;;;15.45;;
31206;SDS011;17834;52.992;8.856;2024-03-08T13:42:09;26.02;;;12.50;;
31206;SDS011;17834;52.992;8.856;2024-03-08T13:44:37;28.33;;;13.05;;
31206;SDS011;17834;52.992;8.856;2024-03-08T13:47:03;32.25;;;14.15;;
31206;SDS011;17834;52.992;8.856;2024-03-08T13:49:30;29.10;;;14.20;;
31206;SDS011;17834;52.992;8.856;2024-03-08T13:51:56;27.63;;;13.52;;
31206;SDS011;17834;52.992;8.856;2024-03-08T13:54:24;29.92;;;14.85;;
31206;SDS011;17834;52.992;8.856;2024-03-08T13:56:52;27.40;;;13.02;;
31206;SDS011;17834;52.992;8.856;2024-03-08T13:59:19;28.92;;;14.50;;
31206;SDS011;17834;52.992;8.856;2024-03-08T14:01:47;31.95;;;14.98;;
31206;SDS011;17834;52.992;8.856;2024-03-08T14:04:16;29.17;;;13.20;;
31206;SDS011;17834;52.992;8.856;2024-03-08T14:06:42;25.45;;;13.30;;
31206;SDS011;17834;52.992;8.856;2024-03-08T14:09:11;28.95;;;14.13;;
31206;SDS011;17834;52.992;8.856;2024-03-08T14:11:44;27.35;;;14.00;;
31206;SDS011;17834;52.992;8.856;2024-03-08T14:14:10;32.95;;;14.32;;
31206;SDS011;17834;52.992;8.856;2024-03-08T14:16:39;27.92;;;13.38;;
31206;SDS011;17834;52.992;8.856;2024-03-08T14:19:05;25.83;;;12.98;;
31206;SDS011;17834;52.992;8.856;2024-03-08T14:21:31;22.67;;;12.70;;
31206;SDS011;17834;52.992;8.856;2024-03-08T14:23:58;29.63;;;14.38;;
31206;SDS011;17834;52.992;8.856;2024-03-08T14:26:24;30.17;;;12.93;;